sensor_id;sensor_type;location;lat;lon;timestamp;temperature;humidity
26099;DHT22;13860;52.370;6.764;2023-01-10T00:01:22;7.20;89.10
26099;DHT22;13860;52.370;6.764;2023-01-10T00:04:24;7.10;88.50
26099;DHT22;13860;52.370;6.764;2023-01-10T00:07:30;7.10;88.50
26099;DHT22;13860;52.370;6.764;2023-01-10T00:10:32;7.10;88.60
26099;DHT22;13860;52.370;6.764;2023-01-10T00:13:33;7.00;88.50
26099;DHT22;13860;52.370;6.764;2023-01-10T00:16:35;7.00;88.60
26099;DHT22;13860;52.370;6.764;2023-01-10T00:19:37;7.00;88.50
26099;DHT22;13860;52.370;6.764;2023-01-10T00:22:39;7.00;89.20
26099;DHT22;13860;52.370;6.764;2023-01-10T00:25:40;6.90;88.50
26099;DHT22;13860;52.370;6.764;2023-01-10T00:28:42;6.90;88.60
26099;DHT22;13860;52.370;6.764;2023-01-10T00:31:44;6.90;88.50
26099;DHT22;13860;52.370;6.764;2023-01-10T00:34:45;6.90;88.60
26099;DHT22;13860;52.370;6.764;2023-01-10T00:37:47;6.80;88.50
26099;DHT22;13860;52.370;6.764;2023-01-10T00:40:48;6.80;88.50
26099;DHT22;13860;52.370;6.764;2023-01-10T00:43:50;6.80;88.50
26099;DHT22;13860;52.370;6.764;2023-01-10T00:46:57;6.70;88.50
26099;DHT22;13860;52.370;6.764;2023-01-10T00:49:59;6.70;88.50
26099;DHT22;13860;52.370;6.764;2023-01-10T00:53:00;6.70;88.60
26099;DHT22;13860;52.370;6.764;2023-01-10T00:56:02;6.70;88.60
26099;DHT22;13860;52.370;6.764;2023-01-10T00:59:04;6.60;88.60
26099;DHT22;13860;52.370;6.764;2023-01-10T01:02:06;6.60;88.70
26099;DHT22;13860;52.370;6.764;2023-01-10T01:05:08;6.60;88.80
26099;DHT22;13860;52.370;6.764;2023-01-10T01:08:10;6.60;88.90
26099;DHT22;13860;52.370;6.764;2023-01-10T01:11:12;6.80;88.80
26099;DHT22;13860;52.370;6.764;2023-01-10T01:14:13;6.60;88.70
26099;DHT22;13860;52.370;6.764;2023-01-10T01:17:14;6.60;88.80
26099;DHT22;13860;52.370;6.764;2023-01-10T01:20:16;6.60;88.80
26099;DHT22;13860;52.370;6.764;2023-01-10T01:23:17;6.60;88.80
26099;DHT22;13860;52.370;6.764;2023-01-10T01:26:19;6.60;88.80
26099;DHT22;13860;52.370;6.764;2023-01-10T01:29:20;6.70;88.90
26099;DHT22;13860;52.370;6.764;2023-01-10T01:32:22;6.70;88.90
26099;DHT22;13860;52.370;6.764;2023-01-10T01:35:24;6.70;88.90
26099;DHT22;13860;52.370;6.764;2023-01-10T01:38:26;6.70;88.80
26099;DHT22;13860;52.370;6.764;2023-01-10T01:41:27;6.70;88.80
26099;DHT22;13860;52.370;6.764;2023-01-10T01:51:20;6.70;88.80
26099;DHT22;13860;52.370;6.764;2023-01-10T01:54:25;6.70;88.80
26099;DHT22;13860;52.370;6.764;2023-01-10T01:57:28;6.70;88.80
26099;DHT22;13860;52.370;6.764;2023-01-10T02:00:32;6.70;88.80
26099;DHT22;13860;52.370;6.764;2023-01-10T02:03:34;6.70;88.80
26099;DHT22;13860;52.370;6.764;2023-01-10T02:06:36;6.70;88.80
26099;DHT22;13860;52.370;6.764;2023-01-10T02:09:45;6.70;88.70
26099;DHT22;13860;52.370;6.764;2023-01-10T02:12:49;6.70;88.70
26099;DHT22;13860;52.370;6.764;2023-01-10T02:15:51;6.80;88.70
26099;DHT22;13860;52.370;6.764;2023-01-10T02:18:53;6.80;88.70
26099;DHT22;13860;52.370;6.764;2023-01-10T02:22:04;6.70;88.60
26099;DHT22;13860;52.370;6.764;2023-01-10T02:32:28;6.70;88.50
26099;DHT22;13860;52.370;6.764;2023-01-10T02:39:23;6.60;88.50
26099;DHT22;13860;52.370;6.764;2023-01-10T02:42:42;6.60;88.50
26099;DHT22;13860;52.370;6.764;2023-01-10T02:46:04;6.60;88.50
26099;DHT22;13860;52.370;6.764;2023-01-10T02:49:07;6.50;88.60
26099;DHT22;13860;52.370;6.764;2023-01-10T02:52:10;6.60;88.60
26099;DHT22;13860;52.370;6.764;2023-01-10T02:55:12;6.60;88.60
26099;DHT22;13860;52.370;6.764;2023-01-10T03:01:42;6.50;88.60
26099;DHT22;13860;52.370;6.764;2023-01-10T03:08:33;6.50;88.70
26099;DHT22;13860;52.370;6.764;2023-01-10T03:11:38;6.50;88.60
26099;DHT22;13860;52.370;6.764;2023-01-10T03:14:44;6.50;88.60
26099;DHT22;13860;52.370;6.764;2023-01-10T03:17:50;6.50;88.60
26099;DHT22;13860;52.370;6.764;2023-01-10T03:20:57;6.50;88.60
26099;DHT22;13860;52.370;6.764;2023-01-10T03:24:02;6.50;88.60
26099;DHT22;13860;52.370;6.764;2023-01-10T03:30:56;6.50;88.60
26099;DHT22;13860;52.370;6.764;2023-01-10T03:33:59;6.50;88.80
26099;DHT22;13860;52.370;6.764;2023-01-10T03:37:05;6.50;88.60
26099;DHT22;13860;52.370;6.764;2023-01-10T03:43:42;6.50;88.60
26099;DHT22;13860;52.370;6.764;2023-01-10T03:47:34;6.50;88.60
26099;DHT22;13860;52.370;6.764;2023-01-10T03:50:38;6.50;88.60
26099;DHT22;13860;52.370;6.764;2023-01-10T03:53:41;6.50;88.60
26099;DHT22;13860;52.370;6.764;2023-01-10T03:56:44;6.50;88.70
26099;DHT22;13860;52.370;6.764;2023-01-10T03:59:46;6.50;88.60
26099;DHT22;13860;52.370;6.764;2023-01-10T04:02:49;6.50;88.70
26099;DHT22;13860;52.370;6.764;2023-01-10T04:05:50;6.50;88.70
26099;DHT22;13860;52.370;6.764;2023-01-10T04:08:52;6.50;88.70
26099;DHT22;13860;52.370;6.764;2023-01-10T04:11:53;6.60;88.80
26099;DHT22;13860;52.370;6.764;2023-01-10T04:14:55;6.50;88.70
26099;DHT22;13860;52.370;6.764;2023-01-10T04:17:56;6.50;89.30
26099;DHT22;13860;52.370;6.764;2023-01-10T04:20:57;6.60;88.70
26099;DHT22;13860;52.370;6.764;2023-01-10T04:23:59;6.60;88.70
26099;DHT22;13860;52.370;6.764;2023-01-10T04:27:00;6.60;88.80
26099;DHT22;13860;52.370;6.764;2023-01-10T04:30:02;6.60;88.80
26099;DHT22;13860;52.370;6.764;2023-01-10T04:33:04;6.60;88.80
26099;DHT22;13860;52.370;6.764;2023-01-10T04:36:07;6.50;88.70
26099;DHT22;13860;52.370;6.764;2023-01-10T04:39:08;6.60;88.80
26099;DHT22;13860;52.370;6.764;2023-01-10T04:42:10;6.60;88.80
26099;DHT22;13860;52.370;6.764;2023-01-10T04:45:11;6.60;88.80
26099;DHT22;13860;52.370;6.764;2023-01-10T04:48:17;6.60;88.80
26099;DHT22;13860;52.370;6.764;2023-01-10T04:51:19;6.60;88.80
26099;DHT22;13860;52.370;6.764;2023-01-10T04:54:21;6.60;88.80
26099;DHT22;13860;52.370;6.764;2023-01-10T04:57:23;6.60;88.90
26099;DHT22;13860;52.370;6.764;2023-01-10T05:00:24;6.60;88.90
26099;DHT22;13860;52.370;6.764;2023-01-10T05:03:26;6.60;88.90
26099;DHT22;13860;52.370;6.764;2023-01-10T05:06:27;6.60;88.90
26099;DHT22;13860;52.370;6.764;2023-01-10T05:09:28;6.60;88.90
26099;DHT22;13860;52.370;6.764;2023-01-10T05:12:30;6.60;88.90
26099;DHT22;13860;52.370;6.764;2023-01-10T05:15:31;6.70;89.00
26099;DHT22;13860;52.370;6.764;2023-01-10T05:18:33;6.70;89.00
26099;DHT22;13860;52.370;6.764;2023-01-10T05:21:34;6.70;89.00
26099;DHT22;13860;52.370;6.764;2023-01-10T05:24:36;6.70;89.00
26099;DHT22;13860;52.370;6.764;2023-01-10T05:27:40;6.70;89.00
26099;DHT22;13860;52.370;6.764;2023-01-10T05:30:41;6.80;89.10
26099;DHT22;13860;52.370;6.764;2023-01-10T05:33:45;6.80;89.10
26099;DHT22;13860;52.370;6.764;2023-01-10T05:36:46;6.80;89.10
26099;DHT22;13860;52.370;6.764;2023-01-10T05:39:48;6.80;89.10
26099;DHT22;13860;52.370;6.764;2023-01-10T05:42:49;6.80;89.10
26099;DHT22;13860;52.370;6.764;2023-01-10T05:45:51;6.80;89.10
26099;DHT22;13860;52.370;6.764;2023-01-10T05:48:52;6.80;89.10
26099;DHT22;13860;52.370;6.764;2023-01-10T05:51:54;6.80;89.10
26099;DHT22;13860;52.370;6.764;2023-01-10T05:54:55;6.80;89.10
26099;DHT22;13860;52.370;6.764;2023-01-10T05:57:57;6.90;89.10
26099;DHT22;13860;52.370;6.764;2023-01-10T06:00:58;6.90;89.20
26099;DHT22;13860;52.370;6.764;2023-01-10T06:03:59;6.90;89.10
26099;DHT22;13860;52.370;6.764;2023-01-10T06:07:01;6.90;89.10
26099;DHT22;13860;52.370;6.764;2023-01-10T06:10:02;6.90;89.20
26099;DHT22;13860;52.370;6.764;2023-01-10T06:13:04;6.90;89.10
26099;DHT22;13860;52.370;6.764;2023-01-10T06:16:05;6.90;89.10
26099;DHT22;13860;52.370;6.764;2023-01-10T06:19:07;6.90;89.10
26099;DHT22;13860;52.370;6.764;2023-01-10T06:22:09;6.90;89.10
26099;DHT22;13860;52.370;6.764;2023-01-10T06:25:11;6.90;89.00
26099;DHT22;13860;52.370;6.764;2023-01-10T06:28:13;6.90;89.00
26099;DHT22;13860;52.370;6.764;2023-01-10T06:31:15;6.90;89.00
26099;DHT22;13860;52.370;6.764;2023-01-10T06:34:16;6.90;89.00
26099;DHT22;13860;52.370;6.764;2023-01-10T06:37:18;6.90;89.00
26099;DHT22;13860;52.370;6.764;2023-01-10T06:40:21;6.90;89.20
26099;DHT22;13860;52.370;6.764;2023-01-10T06:43:22;7.00;90.30
26099;DHT22;13860;52.370;6.764;2023-01-10T06:46:26;6.90;89.50
26099;DHT22;13860;52.370;6.764;2023-01-10T06:49:27;7.00;90.80
26099;DHT22;13860;52.370;6.764;2023-01-10T06:52:30;6.80;88.80
26099;DHT22;13860;52.370;6.764;2023-01-10T06:55:31;6.80;88.80
26099;DHT22;13860;52.370;6.764;2023-01-10T06:58:33;6.80;88.90
26099;DHT22;13860;52.370;6.764;2023-01-10T07:01:34;6.80;88.90
26099;DHT22;13860;52.370;6.764;2023-01-10T07:04:36;6.70;88.90
26099;DHT22;13860;52.370;6.764;2023-01-10T07:07:37;6.70;88.90
26099;DHT22;13860;52.370;6.764;2023-01-10T07:10:40;6.70;88.90
26099;DHT22;13860;52.370;6.764;2023-01-10T07:13:42;6.70;88.90
26099;DHT22;13860;52.370;6.764;2023-01-10T07:16:43;6.70;89.10
26099;DHT22;13860;52.370;6.764;2023-01-10T07:19:44;6.70;89.00
26099;DHT22;13860;52.370;6.764;2023-01-10T07:22:57;6.70;89.00
26099;DHT22;13860;52.370;6.764;2023-01-10T07:26:06;6.60;89.00
26099;DHT22;13860;52.370;6.764;2023-01-10T07:29:08;6.60;89.00
26099;DHT22;13860;52.370;6.764;2023-01-10T07:32:09;6.60;89.00
26099;DHT22;13860;52.370;6.764;2023-01-10T07:35:10;6.60;89.00
26099;DHT22;13860;52.370;6.764;2023-01-10T07:38:12;6.60;89.00
26099;DHT22;13860;52.370;6.764;2023-01-10T07:41:13;6.60;89.00
26099;DHT22;13860;52.370;6.764;2023-01-10T07:44:15;6.60;89.00
26099;DHT22;13860;52.370;6.764;2023-01-10T07:47:16;6.60;89.00
26099;DHT22;13860;52.370;6.764;2023-01-10T07:50:18;6.60;89.00
26099;DHT22;13860;52.370;6.764;2023-01-10T07:53:19;6.60;88.90
26099;DHT22;13860;52.370;6.764;2023-01-10T07:56:20;6.60;89.00
26099;DHT22;13860;52.370;6.764;2023-01-10T07:59:22;6.60;89.00
26099;DHT22;13860;52.370;6.764;2023-01-10T08:02:23;6.60;88.90
26099;DHT22;13860;52.370;6.764;2023-01-10T08:05:25;6.60;89.00
26099;DHT22;13860;52.370;6.764;2023-01-10T08:08:26;6.50;88.90
26099;DHT22;13860;52.370;6.764;2023-01-10T08:11:28;6.50;88.90
26099;DHT22;13860;52.370;6.764;2023-01-10T08:14:29;6.50;89.00
26099;DHT22;13860;52.370;6.764;2023-01-10T08:17:35;6.50;88.90
26099;DHT22;13860;52.370;6.764;2023-01-10T08:20:36;6.50;89.00
26099;DHT22;13860;52.370;6.764;2023-01-10T08:23:38;6.50;89.00
26099;DHT22;13860;52.370;6.764;2023-01-10T08:26:40;6.50;89.00
26099;DHT22;13860;52.370;6.764;2023-01-10T08:29:41;6.50;89.00
26099;DHT22;13860;52.370;6.764;2023-01-10T08:32:43;6.50;89.00
26099;DHT22;13860;52.370;6.764;2023-01-10T08:35:44;6.50;89.10
26099;DHT22;13860;52.370;6.764;2023-01-10T08:38:45;6.50;89.10
26099;DHT22;13860;52.370;6.764;2023-01-10T08:41:48;6.50;89.20
26099;DHT22;13860;52.370;6.764;2023-01-10T08:44:49;6.50;89.20
26099;DHT22;13860;52.370;6.764;2023-01-10T08:47:52;6.50;89.80
26099;DHT22;13860;52.370;6.764;2023-01-10T08:50:53;6.50;89.20
26099;DHT22;13860;52.370;6.764;2023-01-10T08:53:55;6.60;89.30
26099;DHT22;13860;52.370;6.764;2023-01-10T08:56:56;6.60;89.30
26099;DHT22;13860;52.370;6.764;2023-01-10T08:59:57;6.60;89.30
26099;DHT22;13860;52.370;6.764;2023-01-10T09:02:59;6.60;89.30
26099;DHT22;13860;52.370;6.764;2023-01-10T09:06:01;6.60;89.40
26099;DHT22;13860;52.370;6.764;2023-01-10T09:09:02;6.60;89.30
26099;DHT22;13860;52.370;6.764;2023-01-10T09:12:04;6.60;89.30
26099;DHT22;13860;52.370;6.764;2023-01-10T09:15:28;6.70;89.40
26099;DHT22;13860;52.370;6.764;2023-01-10T09:18:30;6.70;89.40
26099;DHT22;13860;52.370;6.764;2023-01-10T09:21:31;6.70;89.90
26099;DHT22;13860;52.370;6.764;2023-01-10T09:24:34;6.80;89.50
26099;DHT22;13860;52.370;6.764;2023-01-10T09:27:37;6.80;89.50
26099;DHT22;13860;52.370;6.764;2023-01-10T09:30:38;6.80;89.50
26099;DHT22;13860;52.370;6.764;2023-01-10T09:33:40;6.90;89.50
26099;DHT22;13860;52.370;6.764;2023-01-10T09:36:48;6.90;89.50
26099;DHT22;13860;52.370;6.764;2023-01-10T09:39:49;6.90;89.50
26099;DHT22;13860;52.370;6.764;2023-01-10T09:46:42;7.00;89.50
26099;DHT22;13860;52.370;6.764;2023-01-10T09:53:14;7.00;89.50
26099;DHT22;13860;52.370;6.764;2023-01-10T09:56:16;7.10;89.50
26099;DHT22;13860;52.370;6.764;2023-01-10T09:59:36;7.10;89.50
26099;DHT22;13860;52.370;6.764;2023-01-10T10:02:41;7.20;89.50
26099;DHT22;13860;52.370;6.764;2023-01-10T10:05:44;7.20;89.50
26099;DHT22;13860;52.370;6.764;2023-01-10T10:08:46;7.20;89.40
26099;DHT22;13860;52.370;6.764;2023-01-10T10:12:38;7.20;89.40
26099;DHT22;13860;52.370;6.764;2023-01-10T10:25:52;7.60;91.20
26099;DHT22;13860;52.370;6.764;2023-01-10T10:29:21;7.10;89.20
26099;DHT22;13860;52.370;6.764;2023-01-10T10:32:40;7.50;89.40
26099;DHT22;13860;52.370;6.764;2023-01-10T10:35:54;7.50;89.40
26099;DHT22;13860;52.370;6.764;2023-01-10T10:38:59;7.50;89.30
26099;DHT22;13860;52.370;6.764;2023-01-10T10:42:02;7.60;89.30
26099;DHT22;13860;52.370;6.764;2023-01-10T10:45:10;7.60;89.30
26099;DHT22;13860;52.370;6.764;2023-01-10T10:48:26;7.60;89.30
26099;DHT22;13860;52.370;6.764;2023-01-10T10:51:38;7.70;89.30
26099;DHT22;13860;52.370;6.764;2023-01-10T10:54:42;7.70;89.20
26099;DHT22;13860;52.370;6.764;2023-01-10T10:57:45;7.70;89.10
26099;DHT22;13860;52.370;6.764;2023-01-10T11:01:00;7.70;89.10
26099;DHT22;13860;52.370;6.764;2023-01-10T11:04:12;7.70;89.10
26099;DHT22;13860;52.370;6.764;2023-01-10T11:07:16;7.70;89.10
26099;DHT22;13860;52.370;6.764;2023-01-10T11:10:22;7.80;89.10
26099;DHT22;13860;52.370;6.764;2023-01-10T11:13:46;7.80;89.10
26099;DHT22;13860;52.370;6.764;2023-01-10T11:16:49;7.80;89.10
26099;DHT22;13860;52.370;6.764;2023-01-10T11:20:05;7.80;89.50
26099;DHT22;13860;52.370;6.764;2023-01-10T11:23:06;7.80;89.10
26099;DHT22;13860;52.370;6.764;2023-01-10T11:26:29;7.80;89.10
26099;DHT22;13860;52.370;6.764;2023-01-10T11:29:38;7.80;89.10
26099;DHT22;13860;52.370;6.764;2023-01-10T11:32:54;7.90;89.10
26099;DHT22;13860;52.370;6.764;2023-01-10T11:35:58;7.90;89.10
26099;DHT22;13860;52.370;6.764;2023-01-10T11:39:02;7.90;89.40
26099;DHT22;13860;52.370;6.764;2023-01-10T11:42:28;7.90;89.00
26099;DHT22;13860;52.370;6.764;2023-01-10T11:45:32;7.90;88.90
26099;DHT22;13860;52.370;6.764;2023-01-10T11:52:26;7.90;88.90
26099;DHT22;13860;52.370;6.764;2023-01-10T11:55:31;8.20;91.20
26099;DHT22;13860;52.370;6.764;2023-01-10T11:58:34;8.00;92.70
26099;DHT22;13860;52.370;6.764;2023-01-10T12:01:42;7.90;88.80
26099;DHT22;13860;52.370;6.764;2023-01-10T12:04:44;7.90;89.50
26099;DHT22;13860;52.370;6.764;2023-01-10T12:08:03;7.90;88.80
26099;DHT22;13860;52.370;6.764;2023-01-10T12:11:26;7.90;88.80
26099;DHT22;13860;52.370;6.764;2023-01-10T12:14:29;7.90;88.80
26099;DHT22;13860;52.370;6.764;2023-01-10T12:17:33;7.90;88.70
26099;DHT22;13860;52.370;6.764;2023-01-10T12:20:46;7.90;88.80
26099;DHT22;13860;52.370;6.764;2023-01-10T12:23:49;7.90;88.70
26099;DHT22;13860;52.370;6.764;2023-01-10T12:26:52;7.90;88.70
26099;DHT22;13860;52.370;6.764;2023-01-10T12:30:10;7.90;88.70
26099;DHT22;13860;52.370;6.764;2023-01-10T12:33:15;7.90;88.60
26099;DHT22;13860;52.370;6.764;2023-01-10T12:36:39;7.90;89.20
26099;DHT22;13860;52.370;6.764;2023-01-10T12:39:48;7.90;88.60
26099;DHT22;13860;52.370;6.764;2023-01-10T12:42:54;7.90;88.60
26099;DHT22;13860;52.370;6.764;2023-01-10T12:46:21;7.90;88.60
26099;DHT22;13860;52.370;6.764;2023-01-10T12:49:51;7.90;88.60
26099;DHT22;13860;52.370;6.764;2023-01-10T12:56:19;7.80;90.60
26099;DHT22;13860;52.370;6.764;2023-01-10T12:59:38;7.80;88.40
26099;DHT22;13860;52.370;6.764;2023-01-10T13:02:45;7.80;88.40
26099;DHT22;13860;52.370;6.764;2023-01-10T13:05:48;7.80;88.60
26099;DHT22;13860;52.370;6.764;2023-01-10T13:08:51;7.80;88.40
26099;DHT22;13860;52.370;6.764;2023-01-10T13:12:07;7.80;88.30
26099;DHT22;13860;52.370;6.764;2023-01-10T13:15:31;7.80;88.30
26099;DHT22;13860;52.370;6.764;2023-01-10T13:18:35;7.80;88.30
26099;DHT22;13860;52.370;6.764;2023-01-10T13:21:40;7.80;88.40
26099;DHT22;13860;52.370;6.764;2023-01-10T13:24:54;7.80;88.30
26099;DHT22;13860;52.370;6.764;2023-01-10T13:28:05;7.80;88.30
26099;DHT22;13860;52.370;6.764;2023-01-10T13:31:25;7.80;88.30
26099;DHT22;13860;52.370;6.764;2023-01-10T13:34:34;7.80;88.80
26099;DHT22;13860;52.370;6.764;2023-01-10T13:37:38;7.80;88.20
26099;DHT22;13860;52.370;6.764;2023-01-10T13:40:40;7.80;88.20
26099;DHT22;13860;52.370;6.764;2023-01-10T13:47:03;7.80;88.10
26099;DHT22;13860;52.370;6.764;2023-01-10T13:56:39;7.80;88.10
26099;DHT22;13860;52.370;6.764;2023-01-10T14:00:03;7.80;88.10
26099;DHT22;13860;52.370;6.764;2023-01-10T14:03:54;7.90;88.20
26099;DHT22;13860;52.370;6.764;2023-01-10T14:07:01;7.80;88.10
26099;DHT22;13860;52.370;6.764;2023-01-10T14:10:23;7.80;88.00
26099;DHT22;13860;52.370;6.764;2023-01-10T14:13:25;7.80;88.10
26099;DHT22;13860;52.370;6.764;2023-01-10T14:19:32;7.80;88.10
26099;DHT22;13860;52.370;6.764;2023-01-10T14:22:37;7.80;88.10
26099;DHT22;13860;52.370;6.764;2023-01-10T14:25:39;7.80;88.20
26099;DHT22;13860;52.370;6.764;2023-01-10T14:28:41;7.80;88.10
26099;DHT22;13860;52.370;6.764;2023-01-10T14:31:45;7.80;88.10
26099;DHT22;13860;52.370;6.764;2023-01-10T14:34:47;7.80;88.00
26099;DHT22;13860;52.370;6.764;2023-01-10T14:37:53;7.80;88.60
26099;DHT22;13860;52.370;6.764;2023-01-10T14:41:24;7.80;88.00
26099;DHT22;13860;52.370;6.764;2023-01-10T14:44:43;7.80;88.00
26099;DHT22;13860;52.370;6.764;2023-01-10T14:47:46;7.80;87.90
26099;DHT22;13860;52.370;6.764;2023-01-10T14:50:49;7.80;88.00
26099;DHT22;13860;52.370;6.764;2023-01-10T14:53:55;7.80;88.00
26099;DHT22;13860;52.370;6.764;2023-01-10T14:56:57;7.80;87.90
26099;DHT22;13860;52.370;6.764;2023-01-10T15:00:07;7.80;87.90
26099;DHT22;13860;52.370;6.764;2023-01-10T15:03:20;7.80;87.90
26099;DHT22;13860;52.370;6.764;2023-01-10T15:06:23;7.80;87.90
26099;DHT22;13860;52.370;6.764;2023-01-10T15:09:28;7.80;87.90
26099;DHT22;13860;52.370;6.764;2023-01-10T15:12:31;7.80;87.90
26099;DHT22;13860;52.370;6.764;2023-01-10T15:15:36;7.80;88.50
26099;DHT22;13860;52.370;6.764;2023-01-10T15:18:40;7.80;87.80
26099;DHT22;13860;52.370;6.764;2023-01-10T15:21:45;7.80;87.80
26099;DHT22;13860;52.370;6.764;2023-01-10T15:25:06;7.90;87.90
26099;DHT22;13860;52.370;6.764;2023-01-10T15:28:26;7.90;88.00
26099;DHT22;13860;52.370;6.764;2023-01-10T15:31:29;7.80;87.70
26099;DHT22;13860;52.370;6.764;2023-01-10T15:34:31;7.80;87.70
26099;DHT22;13860;52.370;6.764;2023-01-10T15:37:35;7.90;87.80
26099;DHT22;13860;52.370;6.764;2023-01-10T15:40:39;7.90;87.80
26099;DHT22;13860;52.370;6.764;2023-01-10T15:43:41;7.90;87.80
26099;DHT22;13860;52.370;6.764;2023-01-10T15:46:55;7.90;87.70
26099;DHT22;13860;52.370;6.764;2023-01-10T15:49:57;7.90;87.70
26099;DHT22;13860;52.370;6.764;2023-01-10T15:53:02;7.90;87.70
26099;DHT22;13860;52.370;6.764;2023-01-10T15:56:10;7.90;87.70
26099;DHT22;13860;52.370;6.764;2023-01-10T15:59:22;7.90;87.70
26099;DHT22;13860;52.370;6.764;2023-01-10T16:02:30;8.00;87.70
26099;DHT22;13860;52.370;6.764;2023-01-10T16:05:33;8.00;87.70
26099;DHT22;13860;52.370;6.764;2023-01-10T16:08:36;8.00;87.70
26099;DHT22;13860;52.370;6.764;2023-01-10T16:15:00;8.00;87.60
26099;DHT22;13860;52.370;6.764;2023-01-10T16:18:01;8.00;87.60
26099;DHT22;13860;52.370;6.764;2023-01-10T16:21:04;8.00;87.60
26099;DHT22;13860;52.370;6.764;2023-01-10T16:24:06;8.00;87.60
26099;DHT22;13860;52.370;6.764;2023-01-10T16:27:12;8.10;87.70
26099;DHT22;13860;52.370;6.764;2023-01-10T16:30:22;8.10;87.50
26099;DHT22;13860;52.370;6.764;2023-01-10T16:33:25;8.10;87.50
26099;DHT22;13860;52.370;6.764;2023-01-10T16:36:27;8.10;87.50
26099;DHT22;13860;52.370;6.764;2023-01-10T16:39:29;8.10;87.60
26099;DHT22;13860;52.370;6.764;2023-01-10T16:42:30;8.10;87.50
26099;DHT22;13860;52.370;6.764;2023-01-10T16:45:56;8.10;87.60
26099;DHT22;13860;52.370;6.764;2023-01-10T16:49:01;8.00;87.40
26099;DHT22;13860;52.370;6.764;2023-01-10T16:52:05;8.00;87.40
26099;DHT22;13860;52.370;6.764;2023-01-10T16:55:18;8.00;87.50
26099;DHT22;13860;52.370;6.764;2023-01-10T16:58:20;8.00;87.50
26099;DHT22;13860;52.370;6.764;2023-01-10T17:01:25;8.00;87.50
26099;DHT22;13860;52.370;6.764;2023-01-10T17:04:29;8.00;87.60
26099;DHT22;13860;52.370;6.764;2023-01-10T17:07:32;7.90;87.50
26099;DHT22;13860;52.370;6.764;2023-01-10T17:10:34;7.90;87.60
26099;DHT22;13860;52.370;6.764;2023-01-10T17:13:41;7.90;87.60
26099;DHT22;13860;52.370;6.764;2023-01-10T17:16:42;7.90;87.50
26099;DHT22;13860;52.370;6.764;2023-01-10T17:19:44;7.90;87.60
26099;DHT22;13860;52.370;6.764;2023-01-10T17:22:47;7.80;87.50
26099;DHT22;13860;52.370;6.764;2023-01-10T17:25:48;7.80;87.60
26099;DHT22;13860;52.370;6.764;2023-01-10T17:28:50;7.80;87.60
26099;DHT22;13860;52.370;6.764;2023-01-10T17:31:52;7.80;87.70
26099;DHT22;13860;52.370;6.764;2023-01-10T17:34:53;7.70;87.60
26099;DHT22;13860;52.370;6.764;2023-01-10T17:37:54;7.70;87.70
26099;DHT22;13860;52.370;6.764;2023-01-10T17:40:58;7.70;87.70
26099;DHT22;13860;52.370;6.764;2023-01-10T17:44:03;7.70;87.70
26099;DHT22;13860;52.370;6.764;2023-01-10T17:47:04;7.60;87.70
26099;DHT22;13860;52.370;6.764;2023-01-10T17:50:05;7.60;87.70
26099;DHT22;13860;52.370;6.764;2023-01-10T17:53:07;7.60;87.70
26099;DHT22;13860;52.370;6.764;2023-01-10T17:56:09;7.60;87.80
26099;DHT22;13860;52.370;6.764;2023-01-10T17:59:10;7.60;87.80
26099;DHT22;13860;52.370;6.764;2023-01-10T18:02:17;7.50;87.80
26099;DHT22;13860;52.370;6.764;2023-01-10T18:05:19;7.50;87.80
26099;DHT22;13860;52.370;6.764;2023-01-10T18:08:21;7.50;87.90
26099;DHT22;13860;52.370;6.764;2023-01-10T18:11:22;7.50;87.90
26099;DHT22;13860;52.370;6.764;2023-01-10T18:14:25;7.50;87.90
26099;DHT22;13860;52.370;6.764;2023-01-10T18:17:38;7.50;88.00
26099;DHT22;13860;52.370;6.764;2023-01-10T18:20:41;7.50;88.00
26099;DHT22;13860;52.370;6.764;2023-01-10T18:23:44;7.40;87.90
26099;DHT22;13860;52.370;6.764;2023-01-10T18:26:47;7.40;88.00
26099;DHT22;13860;52.370;6.764;2023-01-10T18:29:49;7.40;88.00
26099;DHT22;13860;52.370;6.764;2023-01-10T18:32:52;7.40;88.00
26099;DHT22;13860;52.370;6.764;2023-01-10T18:35:53;7.40;88.10
26099;DHT22;13860;52.370;6.764;2023-01-10T18:38:56;7.40;88.10
26099;DHT22;13860;52.370;6.764;2023-01-10T18:41:57;7.40;88.10
26099;DHT22;13860;52.370;6.764;2023-01-10T18:44:59;7.40;88.20
26099;DHT22;13860;52.370;6.764;2023-01-10T18:48:00;7.40;88.20
26099;DHT22;13860;52.370;6.764;2023-01-10T18:51:03;7.30;88.20
26099;DHT22;13860;52.370;6.764;2023-01-10T18:54:04;7.40;88.40
26099;DHT22;13860;52.370;6.764;2023-01-10T18:57:06;7.40;88.40
26099;DHT22;13860;52.370;6.764;2023-01-10T19:00:08;7.40;88.40
26099;DHT22;13860;52.370;6.764;2023-01-10T19:03:10;7.40;88.40
26099;DHT22;13860;52.370;6.764;2023-01-10T19:06:14;7.40;88.50
26099;DHT22;13860;52.370;6.764;2023-01-10T19:09:16;7.40;88.50
26099;DHT22;13860;52.370;6.764;2023-01-10T19:12:19;7.40;88.50
26099;DHT22;13860;52.370;6.764;2023-01-10T19:15:20;7.40;88.50
26099;DHT22;13860;52.370;6.764;2023-01-10T19:18:22;7.50;88.60
26099;DHT22;13860;52.370;6.764;2023-01-10T19:21:24;7.40;88.60
26099;DHT22;13860;52.370;6.764;2023-01-10T19:24:27;7.50;88.70
26099;DHT22;13860;52.370;6.764;2023-01-10T19:27:29;7.50;88.70
26099;DHT22;13860;52.370;6.764;2023-01-10T19:30:34;7.50;88.70
26099;DHT22;13860;52.370;6.764;2023-01-10T19:33:38;7.50;88.70
26099;DHT22;13860;52.370;6.764;2023-01-10T19:36:42;7.50;88.80
26099;DHT22;13860;52.370;6.764;2023-01-10T19:39:44;7.50;88.70
26099;DHT22;13860;52.370;6.764;2023-01-10T19:42:46;7.50;88.80
26099;DHT22;13860;52.370;6.764;2023-01-10T19:45:47;7.60;88.80
26099;DHT22;13860;52.370;6.764;2023-01-10T19:48:49;7.60;88.90
26099;DHT22;13860;52.370;6.764;2023-01-10T19:51:50;7.60;88.90
26099;DHT22;13860;52.370;6.764;2023-01-10T19:54:53;7.60;88.90
26099;DHT22;13860;52.370;6.764;2023-01-10T19:57:55;7.60;89.00
26099;DHT22;13860;52.370;6.764;2023-01-10T20:00:56;7.60;89.00
26099;DHT22;13860;52.370;6.764;2023-01-10T20:04:01;7.60;89.00
26099;DHT22;13860;52.370;6.764;2023-01-10T20:07:03;7.70;89.00
26099;DHT22;13860;52.370;6.764;2023-01-10T20:10:04;7.70;89.00
26099;DHT22;13860;52.370;6.764;2023-01-10T20:13:06;7.70;89.10
26099;DHT22;13860;52.370;6.764;2023-01-10T20:16:12;7.70;89.10
26099;DHT22;13860;52.370;6.764;2023-01-10T20:19:14;7.70;89.10
26099;DHT22;13860;52.370;6.764;2023-01-10T20:22:16;7.70;89.10
26099;DHT22;13860;52.370;6.764;2023-01-10T20:25:17;7.70;89.10
26099;DHT22;13860;52.370;6.764;2023-01-10T20:28:19;7.70;89.10
26099;DHT22;13860;52.370;6.764;2023-01-10T20:31:22;7.80;89.20
26099;DHT22;13860;52.370;6.764;2023-01-10T20:34:24;7.80;89.20
26099;DHT22;13860;52.370;6.764;2023-01-10T20:37:25;7.80;89.20
26099;DHT22;13860;52.370;6.764;2023-01-10T20:40:26;7.80;89.30
26099;DHT22;13860;52.370;6.764;2023-01-10T20:43:29;7.90;89.30
26099;DHT22;13860;52.370;6.764;2023-01-10T20:46:31;7.90;89.30
26099;DHT22;13860;52.370;6.764;2023-01-10T20:49:33;7.90;89.40
26099;DHT22;13860;52.370;6.764;2023-01-10T20:52:35;7.90;89.40
26099;DHT22;13860;52.370;6.764;2023-01-10T20:55:37;7.90;89.40
26099;DHT22;13860;52.370;6.764;2023-01-10T20:58:38;7.90;89.40